sensor_id;sensor_type;location;lat;lon;timestamp;pressure;altitude;pressure_sealevel;temperature;humidity
21594;BME280;10959;51.328;7.322;2023-05-25T00:00:01;75027.91;;;-147.06;50.88
21594;BME280;10959;51.328;7.322;2023-05-25T00:02:30;75038.16;;;-147.06;50.99
21594;BME280;10959;51.328;7.322;2023-05-25T00:04:57;75036.13;;;-147.06;51.11
21594;BME280;10959;51.328;7.322;2023-05-25T00:07:26;75044.31;;;-147.06;51.22
21594;BME280;10959;51.328;7.322;2023-05-25T00:09:53;75048.41;;;-147.06;51.34
21594;BME280;10959;51.328;7.322;2023-05-25T00:12:19;75052.50;;;-147.06;51.55
21594;BME280;10959;51.328;7.322;2023-05-25T00:14:46;75056.59;;;-147.06;51.69
21594;BME280;10959;51.328;7.322;2023-05-25T00:17:12;75052.50;;;-147.06;51.51
21594;BME280;10959;51.328;7.322;2023-05-25T00:19:39;75052.50;;;-147.06;51.41
21594;BME280;10959;51.328;7.322;2023-05-25T00:22:06;75052.50;;;-147.06;51.46
21594;BME280;10959;51.328;7.322;2023-05-25T00:24:34;75052.50;;;-147.06;51.33
21594;BME280;10959;51.328;7.322;2023-05-25T00:27:01;75052.50;;;-147.06;51.44
21594;BME280;10959;51.328;7.322;2023-05-25T00:29:27;75056.59;;;-147.06;51.42
21594;BME280;10959;51.328;7.322;2023-05-25T00:31:54;75068.91;;;-147.06;51.44
21594;BME280;10959;51.328;7.322;2023-05-25T00:34:21;75070.94;;;-147.06;51.46
21594;BME280;10959;51.328;7.322;2023-05-25T00:36:47;75068.91;;;-147.06;51.40
21594;BME280;10959;51.328;7.322;2023-05-25T00:39:14;75068.91;;;-147.06;51.14
21594;BME280;10959;51.328;7.322;2023-05-25T00:41:43;75073.00;;;-147.06;51.19
21594;BME280;10959;51.328;7.322;2023-05-25T00:44:10;75073.00;;;-147.06;51.08
21594;BME280;10959;51.328;7.322;2023-05-25T00:46:43;75085.28;;;-147.06;51.16
21594;BME280;10959;51.328;7.322;2023-05-25T00:49:12;75068.91;;;-147.06;51.33
21594;BME280;10959;51.328;7.322;2023-05-25T00:51:40;75073.00;;;-147.06;51.55
21594;BME280;10959;51.328;7.322;2023-05-25T00:54:10;75073.00;;;-147.06;51.68
21594;BME280;10959;51.328;7.322;2023-05-25T00:56:39;75068.91;;;-147.06;51.73
21594;BME280;10959;51.328;7.322;2023-05-25T00:59:12;75073.00;;;-147.06;51.58
21594;BME280;10959;51.328;7.322;2023-05-25T01:01:40;75077.09;;;-147.06;51.54
21594;BME280;10959;51.328;7.322;2023-05-25T01:04:10;75073.00;;;-147.06;51.59
21594;BME280;10959;51.328;7.322;2023-05-25T01:06:41;75085.28;;;-147.06;51.50
21594;BME280;10959;51.328;7.322;2023-05-25T01:09:10;75081.19;;;-147.06;51.70
21594;BME280;10959;51.328;7.322;2023-05-25T01:11:39;75093.50;;;-147.06;51.74
21594;BME280;10959;51.328;7.322;2023-05-25T01:14:08;75101.69;;;-147.06;51.92
21594;BME280;10959;51.328;7.322;2023-05-25T01:16:35;75109.88;;;-147.06;52.15
21594;BME280;10959;51.328;7.322;2023-05-25T01:19:02;75122.19;;;-147.06;52.22
21594;BME280;10959;51.328;7.322;2023-05-25T01:21:34;75130.38;;;-147.06;52.42
21594;BME280;10959;51.328;7.322;2023-05-25T01:24:08;75136.53;;;-147.06;52.18
21594;BME280;10959;51.328;7.322;2023-05-25T01:26:41;75130.38;;;-147.06;52.17
21594;BME280;10959;51.328;7.322;2023-05-25T01:29:10;75134.47;;;-147.06;52.15
21594;BME280;10959;51.328;7.322;2023-05-25T01:31:38;75132.44;;;-147.06;52.24
21594;BME280;10959;51.328;7.322;2023-05-25T01:34:04;75130.38;;;-147.06;51.98
21594;BME280;10959;51.328;7.322;2023-05-25T01:36:33;75126.28;;;-147.06;52.06
21594;BME280;10959;51.328;7.322;2023-05-25T01:38:59;75126.28;;;-147.06;51.98
21594;BME280;10959;51.328;7.322;2023-05-25T01:41:26;75130.38;;;-147.06;52.13
21594;BME280;10959;51.328;7.322;2023-05-25T01:43:52;75130.38;;;-147.06;52.15
21594;BME280;10959;51.328;7.322;2023-05-25T01:46:24;75146.78;;;-147.06;52.00
21594;BME280;10959;51.328;7.322;2023-05-25T01:48:59;75150.88;;;-147.06;52.02
21594;BME280;10959;51.328;7.322;2023-05-25T01:51:31;75154.97;;;-147.06;52.03
21594;BME280;10959;51.328;7.322;2023-05-25T01:54:07;75169.31;;;-147.06;52.17
21594;BME280;10959;51.328;7.322;2023-05-25T01:56:35;75165.22;;;-147.06;52.49
21594;BME280;10959;51.328;7.322;2023-05-25T01:59:05;75181.59;;;-147.06;52.37
21594;BME280;10959;51.328;7.322;2023-05-25T02:01:33;75169.31;;;-147.06;52.07
21594;BME280;10959;51.328;7.322;2023-05-25T02:04:02;75167.25;;;-147.06;52.00
21594;BME280;10959;51.328;7.322;2023-05-25T02:06:28;75167.25;;;-147.06;51.86
21594;BME280;10959;51.328;7.322;2023-05-25T02:08:56;75173.41;;;-147.06;51.92
21594;BME280;10959;51.328;7.322;2023-05-25T02:11:23;75175.47;;;-147.06;51.89
21594;BME280;10959;51.328;7.322;2023-05-25T02:13:50;75179.56;;;-147.06;51.83
21594;BME280;10959;51.328;7.322;2023-05-25T02:16:17;75177.50;;;-147.06;51.94
21594;BME280;10959;51.328;7.322;2023-05-25T02:18:43;75183.66;;;-147.06;52.09
21594;BME280;10959;51.328;7.322;2023-05-25T02:21:10;75179.56;;;-147.06;51.89
21594;BME280;10959;51.328;7.322;2023-05-25T02:23:36;75183.66;;;-147.06;51.96
21594;BME280;10959;51.328;7.322;2023-05-25T02:26:03;75179.56;;;-147.06;51.87
21594;BME280;10959;51.328;7.322;2023-05-25T02:28:31;75187.75;;;-147.06;51.75
21594;BME280;10959;51.328;7.322;2023-05-25T02:30:57;75187.75;;;-147.06;51.85
21594;BME280;10959;51.328;7.322;2023-05-25T02:33:24;75187.75;;;-147.06;51.78
21594;BME280;10959;51.328;7.322;2023-05-25T02:35:50;75185.72;;;-147.06;51.81
21594;BME280;10959;51.328;7.322;2023-05-25T02:38:16;75191.84;;;-147.06;51.85
21594;BME280;10959;51.328;7.322;2023-05-25T02:40:44;75198.00;;;-147.06;51.98
21594;BME280;10959;51.328;7.322;2023-05-25T02:43:10;75204.16;;;-147.06;51.94
21594;BME280;10959;51.328;7.322;2023-05-25T02:45:38;75208.25;;;-147.06;51.75
21594;BME280;10959;51.328;7.322;2023-05-25T02:48:05;75212.34;;;-147.06;52.09
21594;BME280;10959;51.328;7.322;2023-05-25T02:50:31;75216.44;;;-147.06;52.29
21594;BME280;10959;51.328;7.322;2023-05-25T02:52:58;75228.75;;;-147.06;52.56
21594;BME280;10959;51.328;7.322;2023-05-25T02:55:24;75234.88;;;-147.06;52.68
21594;BME280;10959;51.328;7.322;2023-05-25T02:57:51;75245.13;;;-147.06;52.84
21594;BME280;10959;51.328;7.322;2023-05-25T03:00:17;75249.22;;;-147.06;53.28
21594;BME280;10959;51.328;7.322;2023-05-25T03:02:46;75259.47;;;-147.06;53.50
21594;BME280;10959;51.328;7.322;2023-05-25T03:05:14;75265.63;;;-147.06;53.55
21594;BME280;10959;51.328;7.322;2023-05-25T03:07:40;75292.25;;;-147.06;54.19
21594;BME280;10959;51.328;7.322;2023-05-25T03:10:07;75314.81;;;-147.06;54.24
21594;BME280;10959;51.328;7.322;2023-05-25T03:12:34;75323.00;;;-147.06;54.71
21594;BME280;10959;51.328;7.322;2023-05-25T03:15:00;75327.09;;;-147.06;54.81
21594;BME280;10959;51.328;7.322;2023-05-25T03:17:27;75318.91;;;-147.06;54.66
21594;BME280;10959;51.328;7.322;2023-05-25T03:19:55;75306.59;;;-147.06;54.26
21594;BME280;10959;51.328;7.322;2023-05-25T03:22:21;75306.59;;;-147.06;54.30
21594;BME280;10959;51.328;7.322;2023-05-25T03:24:48;75306.59;;;-147.06;53.81
21594;BME280;10959;51.328;7.322;2023-05-25T03:27:14;75306.59;;;-147.06;53.56
21594;BME280;10959;51.328;7.322;2023-05-25T03:29:40;75302.50;;;-147.06;53.71
21594;BME280;10959;51.328;7.322;2023-05-25T03:32:07;75298.41;;;-147.06;53.42
21594;BME280;10959;51.328;7.322;2023-05-25T03:34:33;75302.50;;;-147.06;53.59
21594;BME280;10959;51.328;7.322;2023-05-25T03:37:03;75306.59;;;-147.06;53.12
21594;BME280;10959;51.328;7.322;2023-05-25T03:39:29;75300.47;;;-147.06;53.30
21594;BME280;10959;51.328;7.322;2023-05-25T03:41:56;75306.59;;;-147.06;53.14
21594;BME280;10959;51.328;7.322;2023-05-25T03:44:23;75306.59;;;-147.06;53.11
21594;BME280;10959;51.328;7.322;2023-05-25T03:46:49;75306.59;;;-147.06;52.83
21594;BME280;10959;51.328;7.322;2023-05-25T03:49:15;75306.59;;;-147.06;52.92
21594;BME280;10959;51.328;7.322;2023-05-25T03:51:43;75306.59;;;-147.06;52.84
21594;BME280;10959;51.328;7.322;2023-05-25T03:54:11;75302.50;;;-147.06;52.97
21594;BME280;10959;51.328;7.322;2023-05-25T03:56:38;75306.59;;;-147.06;52.99
21594;BME280;10959;51.328;7.322;2023-05-25T03:59:04;75314.81;;;-147.06;52.98
21594;BME280;10959;51.328;7.322;2023-05-25T04:01:31;75323.00;;;-147.06;53.14
21594;BME280;10959;51.328;7.322;2023-05-25T04:03:57;75316.84;;;-147.06;53.19
21594;BME280;10959;51.328;7.322;2023-05-25T04:06:24;75314.81;;;-147.06;53.58
21594;BME280;10959;51.328;7.322;2023-05-25T04:08:50;75314.81;;;-147.06;53.66
21594;BME280;10959;51.328;7.322;2023-05-25T04:11:18;75314.81;;;-147.06;54.01
21594;BME280;10959;51.328;7.322;2023-05-25T04:13:46;75318.91;;;-147.06;54.02
21594;BME280;10959;51.328;7.322;2023-05-25T04:16:13;75323.00;;;-147.06;53.90
21594;BME280;10959;51.328;7.322;2023-05-25T04:18:39;75314.81;;;-147.06;54.14
21594;BME280;10959;51.328;7.322;2023-05-25T04:21:06;75310.72;;;-147.06;53.94
21594;BME280;10959;51.328;7.322;2023-05-25T04:23:32;75308.66;;;-147.06;54.15
21594;BME280;10959;51.328;7.322;2023-05-25T04:25:59;75302.50;;;-147.06;54.14
21594;BME280;10959;51.328;7.322;2023-05-25T04:28:27;75312.75;;;-147.06;54.35
21594;BME280;10959;51.328;7.322;2023-05-25T04:30:53;75314.81;;;-147.06;54.75
21594;BME280;10959;51.328;7.322;2023-05-25T04:33:21;75308.66;;;-147.06;54.46
21594;BME280;10959;51.328;7.322;2023-05-25T04:35:47;75298.41;;;-147.06;54.43
21594;BME280;10959;51.328;7.322;2023-05-25T04:38:14;75294.31;;;-147.06;54.61
21594;BME280;10959;51.328;7.322;2023-05-25T04:40:41;75284.06;;;-147.06;54.43
21594;BME280;10959;51.328;7.322;2023-05-25T04:43:10;75277.91;;;-147.06;54.26
21594;BME280;10959;51.328;7.322;2023-05-25T04:45:39;75265.63;;;-147.06;54.46
21594;BME280;10959;51.328;7.322;2023-05-25T04:48:05;75261.53;;;-147.06;54.26
21594;BME280;10959;51.328;7.322;2023-05-25T04:50:32;75265.63;;;-147.06;54.30
21594;BME280;10959;51.328;7.322;2023-05-25T04:52:58;75257.44;;;-147.06;54.38
21594;BME280;10959;51.328;7.322;2023-05-25T04:55:24;75261.53;;;-147.06;54.54
21594;BME280;10959;51.328;7.322;2023-05-25T04:57:51;75245.13;;;-147.06;54.47
21594;BME280;10959;51.328;7.322;2023-05-25T05:00:19;75241.03;;;-147.06;54.41
21594;BME280;10959;51.328;7.322;2023-05-25T05:02:47;75241.03;;;-147.06;54.41
21594;BME280;10959;51.328;7.322;2023-05-25T05:05:14;75245.13;;;-147.06;54.60
21594;BME280;10959;51.328;7.322;2023-05-25T05:07:40;75228.75;;;-147.06;54.39
21594;BME280;10959;51.328;7.322;2023-05-25T05:10:07;75210.28;;;-147.06;54.29
21594;BME280;10959;51.328;7.322;2023-05-25T05:12:34;75208.25;;;-147.06;54.16
21594;BME280;10959;51.328;7.322;2023-05-25T05:15:01;75208.25;;;-147.06;54.09
21594;BME280;10959;51.328;7.322;2023-05-25T05:17:27;75202.09;;;-147.06;54.08
21594;BME280;10959;51.328;7.322;2023-05-25T05:19:56;75191.84;;;-147.06;54.25
21594;BME280;10959;51.328;7.322;2023-05-25T05:22:23;75185.72;;;-147.06;54.32
21594;BME280;10959;51.328;7.322;2023-05-25T05:24:49;75175.47;;;-147.06;54.34
21594;BME280;10959;51.328;7.322;2023-05-25T05:27:16;75154.97;;;-147.06;54.28
21594;BME280;10959;51.328;7.322;2023-05-25T05:29:42;75144.72;;;-147.06;54.35
21594;BME280;10959;51.328;7.322;2023-05-25T05:32:08;75134.47;;;-147.06;54.34
21594;BME280;10959;51.328;7.322;2023-05-25T05:34:35;75126.28;;;-147.06;54.22
21594;BME280;10959;51.328;7.322;2023-05-25T05:37:03;75113.97;;;-147.06;54.22
21594;BME280;10959;51.328;7.322;2023-05-25T05:39:29;75101.69;;;-147.06;54.24
21594;BME280;10959;51.328;7.322;2023-05-25T05:41:56;75081.19;;;-147.06;54.42
21594;BME280;10959;51.328;7.322;2023-05-25T05:44:23;75073.00;;;-147.06;54.38
21594;BME280;10959;51.328;7.322;2023-05-25T05:46:49;75060.72;;;-147.06;54.59
21594;BME280;10959;51.328;7.322;2023-05-25T05:49:16;75056.59;;;-147.06;54.82
21594;BME280;10959;51.328;7.322;2023-05-25T05:51:42;75052.50;;;-147.06;55.01
21594;BME280;10959;51.328;7.322;2023-05-25T05:54:10;75044.31;;;-147.06;55.21
21594;BME280;10959;51.328;7.322;2023-05-25T05:56:36;75054.56;;;-147.06;55.63
21594;BME280;10959;51.328;7.322;2023-05-25T05:59:03;75066.84;;;-147.06;55.82
21594;BME280;10959;51.328;7.322;2023-05-25T06:01:29;75062.75;;;-147.06;55.63
21594;BME280;10959;51.328;7.322;2023-05-25T06:03:57;75064.81;;;-147.06;55.96
21594;BME280;10959;51.328;7.322;2023-05-25T06:06:23;75056.59;;;-147.06;55.92
21594;BME280;10959;51.328;7.322;2023-05-25T06:08:50;75050.47;;;-147.06;56.10
21594;BME280;10959;51.328;7.322;2023-05-25T06:11:18;75052.50;;;-147.06;56.47
21594;BME280;10959;51.328;7.322;2023-05-25T06:13:44;75048.41;;;-147.06;56.66
21594;BME280;10959;51.328;7.322;2023-05-25T06:16:11;75048.41;;;-147.06;56.89
21594;BME280;10959;51.328;7.322;2023-05-25T06:18:37;75052.50;;;-147.06;57.24
21594;BME280;10959;51.328;7.322;2023-05-25T06:21:04;75060.72;;;-147.06;57.50
21594;BME280;10959;51.328;7.322;2023-05-25T06:23:31;75048.41;;;-147.06;57.49
21594;BME280;10959;51.328;7.322;2023-05-25T06:26:02;75060.72;;;-147.06;57.47
21594;BME280;10959;51.328;7.322;2023-05-25T06:28:30;75081.19;;;-147.06;58.05
21594;BME280;10959;51.328;7.322;2023-05-25T06:30:56;75073.00;;;-147.06;58.14
21594;BME280;10959;51.328;7.322;2023-05-25T06:33:22;75068.91;;;-147.06;58.23
21594;BME280;10959;51.328;7.322;2023-05-25T06:35:49;75085.28;;;-147.06;58.48
21594;BME280;10959;51.328;7.322;2023-05-25T06:38:16;75056.59;;;-147.06;57.95
21594;BME280;10959;51.328;7.322;2023-05-25T06:40:44;75056.59;;;-147.06;57.77
21594;BME280;10959;51.328;7.322;2023-05-25T06:43:10;75029.97;;;-147.06;57.51
21594;BME280;10959;51.328;7.322;2023-05-25T06:45:39;75038.16;;;-147.06;57.09
21594;BME280;10959;51.328;7.322;2023-05-25T06:48:05;75040.22;;;-147.06;57.25
21594;BME280;10959;51.328;7.322;2023-05-25T06:50:32;75050.47;;;-147.06;57.28
21594;BME280;10959;51.328;7.322;2023-05-25T06:52:58;75073.00;;;-147.06;57.85
21594;BME280;10959;51.328;7.322;2023-05-25T06:55:25;75062.75;;;-147.06;57.93
21594;BME280;10959;51.328;7.322;2023-05-25T06:57:51;75046.38;;;-147.06;57.50
21594;BME280;10959;51.328;7.322;2023-05-25T07:00:18;75007.44;;;-147.06;57.19
21594;BME280;10959;51.328;7.322;2023-05-25T07:02:46;74972.59;;;-147.06;56.32
21594;BME280;10959;51.328;7.322;2023-05-25T07:05:13;74937.75;;;-147.06;56.07
21594;BME280;10959;51.328;7.322;2023-05-25T07:07:40;74886.53;;;-147.06;55.67
21594;BME280;10959;51.328;7.322;2023-05-25T07:10:07;74847.59;;;-147.06;55.12
21594;BME280;10959;51.328;7.322;2023-05-25T07:12:34;74843.50;;;-147.06;53.92
21594;BME280;10959;51.328;7.322;2023-05-25T07:15:01;74823.03;;;-147.06;53.63
21594;BME280;10959;51.328;7.322;2023-05-25T07:17:27;74782.03;;;-147.06;53.79
21594;BME280;10959;51.328;7.322;2023-05-25T07:19:56;74749.25;;;-147.06;53.19
21594;BME280;10959;51.328;7.322;2023-05-25T07:22:24;74714.41;;;-147.06;52.33
21594;BME280;10959;51.328;7.322;2023-05-25T07:24:50;74749.25;;;-147.06;52.03
21594;BME280;10959;51.328;7.322;2023-05-25T07:27:17;74761.56;;;-147.06;52.26
21594;BME280;10959;51.328;7.322;2023-05-25T07:29:44;74786.13;;;-147.06;52.21
21594;BME280;10959;51.328;7.322;2023-05-25T07:32:10;74794.34;;;-147.06;52.40
21594;BME280;10959;51.328;7.322;2023-05-25T07:34:37;74823.03;;;-147.06;52.50
21594;BME280;10959;51.328;7.322;2023-05-25T07:37:05;74810.72;;;-147.06;52.42
21594;BME280;10959;51.328;7.322;2023-05-25T07:39:31;74825.06;;;-147.06;52.80
21594;BME280;10959;51.328;7.322;2023-05-25T07:41:58;74825.06;;;-147.06;52.38
21594;BME280;10959;51.328;7.322;2023-05-25T07:44:26;74839.41;;;-147.06;52.98
21594;BME280;10959;51.328;7.322;2023-05-25T07:46:53;74802.53;;;-147.06;52.77
21594;BME280;10959;51.328;7.322;2023-05-25T07:49:19;74788.19;;;-147.06;52.01
21594;BME280;10959;51.328;7.322;2023-05-25T07:51:46;74792.28;;;-147.06;52.03
21594;BME280;10959;51.328;7.322;2023-05-25T07:54:14;74810.72;;;-147.06;51.89
21594;BME280;10959;51.328;7.322;2023-05-25T07:56:40;74790.22;;;-147.06;51.86
21594;BME280;10959;51.328;7.322;2023-05-25T07:59:07;74757.44;;;-147.06;51.75
21594;BME280;10959;51.328;7.322;2023-05-25T08:01:35;74782.03;;;-147.06;51.18
21594;BME280;10959;51.328;7.322;2023-05-25T08:04:03;74763.59;;;-147.06;51.54
21594;BME280;10959;51.328;7.322;2023-05-25T08:06:29;74786.13;;;-147.06;49.99
21594;BME280;10959;51.328;7.322;2023-05-25T08:08:56;74806.63;;;-147.06;50.52
21594;BME280;10959;51.328;7.322;2023-05-25T08:11:24;74777.94;;;-147.06;50.64
21594;BME280;10959;51.328;7.322;2023-05-25T08:13:52;74806.63;;;-147.06;50.52
21594;BME280;10959;51.328;7.322;2023-05-25T08:16:18;74816.88;;;-147.06;50.41
21594;BME280;10959;51.328;7.322;2023-05-25T08:18:45;74814.81;;;-147.06;50.69
21594;BME280;10959;51.328;7.322;2023-05-25T08:21:12;74796.38;;;-147.06;50.64
21594;BME280;10959;51.328;7.322;2023-05-25T08:23:39;74769.75;;;-147.06;50.32
21594;BME280;10959;51.328;7.322;2023-05-25T08:26:06;74769.75;;;-147.06;50.23
21594;BME280;10959;51.328;7.322;2023-05-25T08:28:34;74777.94;;;-147.06;50.19
21594;BME280;10959;51.328;7.322;2023-05-25T08:31:01;74782.03;;;-147.06;50.68
21594;BME280;10959;51.328;7.322;2023-05-25T08:33:28;74761.56;;;-147.06;50.98
21594;BME280;10959;51.328;7.322;2023-05-25T08:35:54;74765.66;;;-147.06;50.80
21594;BME280;10959;51.328;7.322;2023-05-25T08:38:23;74745.16;;;-147.06;50.73
21594;BME280;10959;51.328;7.322;2023-05-25T08:41:01;74741.06;;;-147.06;50.71
21594;BME280;10959;51.328;7.322;2023-05-25T08:43:28;74749.25;;;-147.06;49.60
21594;BME280;10959;51.328;7.322;2023-05-25T08:46:00;74745.16;;;-147.06;49.78
21594;BME280;10959;51.328;7.322;2023-05-25T08:48:29;74736.97;;;-147.06;49.54
21594;BME280;10959;51.328;7.322;2023-05-25T08:50:57;74712.38;;;-147.06;49.40
21594;BME280;10959;51.328;7.322;2023-05-25T08:53:26;74712.38;;;-147.06;48.86
21594;BME280;10959;51.328;7.322;2023-05-25T08:55:54;74693.94;;;-147.06;48.47
21594;BME280;10959;51.328;7.322;2023-05-25T08:58:27;74716.47;;;-147.06;48.52
21594;BME280;10959;51.328;7.322;2023-05-25T09:01:01;74747.22;;;-147.06;48.90
21594;BME280;10959;51.328;7.322;2023-05-25T09:03:31;74712.38;;;-147.06;48.98
21594;BME280;10959;51.328;7.322;2023-05-25T09:05:58;74704.19;;;-147.06;48.83
21594;BME280;10959;51.328;7.322;2023-05-25T09:08:25;74683.69;;;-147.06;48.47
21594;BME280;10959;51.328;7.322;2023-05-25T09:10:52;74693.94;;;-147.06;48.14
21594;BME280;10959;51.328;7.322;2023-05-25T09:13:20;74732.88;;;-147.06;47.94
21594;BME280;10959;51.328;7.322;2023-05-25T09:15:47;74728.75;;;-147.06;48.33
21594;BME280;10959;51.328;7.322;2023-05-25T09:18:15;74749.25;;;-147.06;48.47
21594;BME280;10959;51.328;7.322;2023-05-25T09:20:42;74741.06;;;-147.06;48.62
21594;BME280;10959;51.328;7.322;2023-05-25T09:23:09;74736.97;;;-147.06;48.70
21594;BME280;10959;51.328;7.322;2023-05-25T09:25:36;74716.47;;;-147.06;48.10
21594;BME280;10959;51.328;7.322;2023-05-25T09:28:06;74716.47;;;-147.06;48.13
21594;BME280;10959;51.328;7.322;2023-05-25T09:30:34;74736.97;;;-147.06;48.23
21594;BME280;10959;51.328;7.322;2023-05-25T09:33:10;74741.06;;;-147.06;48.46
21594;BME280;10959;51.328;7.322;2023-05-25T09:35:39;74724.66;;;-147.06;47.88
21594;BME280;10959;51.328;7.322;2023-05-25T09:38:06;74716.47;;;-147.06;48.11
21594;BME280;10959;51.328;7.322;2023-05-25T09:40:33;74747.22;;;-147.06;47.93
21594;BME280;10959;51.328;7.322;2023-05-25T09:43:01;74726.72;;;-147.06;48.35
21594;BME280;10959;51.328;7.322;2023-05-25T09:45:28;74745.16;;;-147.06;48.05
21594;BME280;10959;51.328;7.322;2023-05-25T09:47:55;74749.25;;;-147.06;48.22
21594;BME280;10959;51.328;7.322;2023-05-25T09:50:21;74745.16;;;-147.06;48.26
21594;BME280;10959;51.328;7.322;2023-05-25T09:52:51;74753.34;;;-147.06;48.26
21594;BME280;10959;51.328;7.322;2023-05-25T09:55:17;74782.03;;;-147.06;48.51
21594;BME280;10959;51.328;7.322;2023-05-25T09:57:44;74786.13;;;-147.06;48.98
21594;BME280;10959;51.328;7.322;2023-05-25T10:00:11;74777.94;;;-147.06;49.17
21594;BME280;10959;51.328;7.322;2023-05-25T10:02:39;74790.22;;;-147.06;48.90
21594;BME280;10959;51.328;7.322;2023-05-25T10:05:07;74769.75;;;-147.06;48.94
21594;BME280;10959;51.328;7.322;2023-05-25T10:07:33;74773.84;;;-147.06;48.95
21594;BME280;10959;51.328;7.322;2023-05-25T10:10:05;74777.94;;;-147.06;48.83
21594;BME280;10959;51.328;7.322;2023-05-25T10:12:32;74771.78;;;-147.06;49.00
21594;BME280;10959;51.328;7.322;2023-05-25T10:15:02;74753.34;;;-147.06;48.86
21594;BME280;10959;51.328;7.322;2023-05-25T10:17:30;74741.06;;;-147.06;48.75
21594;BME280;10959;51.328;7.322;2023-05-25T10:19:59;74736.97;;;-147.06;48.21
21594;BME280;10959;51.328;7.322;2023-05-25T10:22:31;74755.41;;;-147.06;48.50
21594;BME280;10959;51.328;7.322;2023-05-25T10:25:05;74755.41;;;-147.06;48.22
21594;BME280;10959;51.328;7.322;2023-05-25T10:27:37;74753.34;;;-147.06;48.23
21594;BME280;10959;51.328;7.322;2023-05-25T10:30:05;74765.66;;;-147.06;48.50
21594;BME280;10959;51.328;7.322;2023-05-25T10:32:36;74734.91;;;-147.06;48.29
21594;BME280;10959;51.328;7.322;2023-05-25T10:35:04;74724.66;;;-147.06;47.87
21594;BME280;10959;51.328;7.322;2023-05-25T10:37:32;74698.03;;;-147.06;48.02
21594;BME280;10959;51.328;7.322;2023-05-25T10:39:59;74712.38;;;-147.06;47.78
21594;BME280;10959;51.328;7.322;2023-05-25T10:42:28;74695.97;;;-147.06;47.73
21594;BME280;10959;51.328;7.322;2023-05-25T10:44:55;74687.78;;;-147.06;46.92
21594;BME280;10959;51.328;7.322;2023-05-25T10:47:22;74700.09;;;-147.06;46.80
21594;BME280;10959;51.328;7.322;2023-05-25T10:49:51;74691.88;;;-147.06;46.85
21594;BME280;10959;51.328;7.322;2023-05-25T10:52:18;74683.69;;;-147.06;46.66
21594;BME280;10959;51.328;7.322;2023-05-25T10:54:46;74687.78;;;-147.06;46.55
21594;BME280;10959;51.328;7.322;2023-05-25T10:57:17;74714.41;;;-147.06;46.43
21594;BME280;10959;51.328;7.322;2023-05-25T10:59:49;74736.97;;;-147.06;46.97
21594;BME280;10959;51.328;7.322;2023-05-25T11:02:16;74739.00;;;-147.06;46.90
21594;BME280;10959;51.328;7.322;2023-05-25T11:04:47;74786.13;;;-147.06;46.65
21594;BME280;10959;51.328;7.322;2023-05-25T11:07:14;74823.03;;;-147.06;47.23
21594;BME280;10959;51.328;7.322;2023-05-25T11:09:44;74823.03;;;-147.06;47.73
21594;BME280;10959;51.328;7.322;2023-05-25T11:12:21;74812.78;;;-147.06;47.74
21594;BME280;10959;51.328;7.322;2023-05-25T11:15:14;74823.03;;;-147.06;47.68
21594;BME280;10959;51.328;7.322;2023-05-25T11:17:58;74831.22;;;-147.06;47.76
21594;BME280;10959;51.328;7.322;2023-05-25T11:20:27;74802.53;;;-147.06;47.71
21594;BME280;10959;51.328;7.322;2023-05-25T11:22:56;74777.94;;;-147.06;47.53
21594;BME280;10959;51.328;7.322;2023-05-25T11:25:37;74814.81;;;-147.06;46.98
21594;BME280;10959;51.328;7.322;2023-05-25T11:28:05;74782.03;;;-147.06;47.44
21594;BME280;10959;51.328;7.322;2023-05-25T11:30:34;74765.66;;;-147.06;46.83
21594;BME280;10959;51.328;7.322;2023-05-25T11:33:01;74773.84;;;-147.06;47.22
21594;BME280;10959;51.328;7.322;2023-05-25T11:35:30;74759.50;;;-147.06;46.86
21594;BME280;10959;51.328;7.322;2023-05-25T11:38:02;74726.72;;;-147.06;47.39
21594;BME280;10959;51.328;7.322;2023-05-25T11:40:30;74702.13;;;-147.06;46.85
21594;BME280;10959;51.328;7.322;2023-05-25T11:42:58;74708.28;;;-147.06;46.33
21594;BME280;10959;51.328;7.322;2023-05-25T11:45:27;74732.88;;;-147.06;46.14
21594;BME280;10959;51.328;7.322;2023-05-25T11:47:56;74708.28;;;-147.06;46.02
21594;BME280;10959;51.328;7.322;2023-05-25T11:50:23;74695.97;;;-147.06;46.12
21594;BME280;10959;51.328;7.322;2023-05-25T11:52:49;74681.63;;;-147.06;46.27
21594;BME280;10959;51.328;7.322;2023-05-25T11:55:16;74663.19;;;-147.06;45.61
21594;BME280;10959;51.328;7.322;2023-05-25T11:57:43;74630.41;;;-147.06;46.13
21594;BME280;10959;51.328;7.322;2023-05-25T12:00:11;74691.88;;;-147.06;45.52
21594;BME280;10959;51.328;7.322;2023-05-25T12:02:38;74712.38;;;-147.06;45.99
21594;BME280;10959;51.328;7.322;2023-05-25T12:05:07;74708.28;;;-147.06;46.31
21594;BME280;10959;51.328;7.322;2023-05-25T12:07:41;74712.38;;;-147.06;46.60
21594;BME280;10959;51.328;7.322;2023-05-25T12:10:09;74704.19;;;-147.06;45.74
21594;BME280;10959;51.328;7.322;2023-05-25T12:12:38;74693.94;;;-147.06;46.36
21594;BME280;10959;51.328;7.322;2023-05-25T12:15:06;74677.53;;;-147.06;46.15
21594;BME280;10959;51.328;7.322;2023-05-25T12:17:33;74659.09;;;-147.06;46.18
21594;BME280;10959;51.328;7.322;2023-05-25T12:20:00;74671.41;;;-147.06;46.20
21594;BME280;10959;51.328;7.322;2023-05-25T12:22:29;74667.28;;;-147.06;45.75
21594;BME280;10959;51.328;7.322;2023-05-25T12:24:56;74646.81;;;-147.06;46.58
21594;BME280;10959;51.328;7.322;2023-05-25T12:27:22;74630.41;;;-147.06;46.17
21594;BME280;10959;51.328;7.322;2023-05-25T12:29:49;74622.22;;;-147.06;46.53
21594;BME280;10959;51.328;7.322;2023-05-25T12:32:17;74603.78;;;-147.06;46.00
21594;BME280;10959;51.328;7.322;2023-05-25T12:34:44;74581.25;;;-147.06;46.09
21594;BME280;10959;51.328;7.322;2023-05-25T12:37:17;74650.91;;;-147.06;45.33
21594;BME280;10959;51.328;7.322;2023-05-25T12:39:47;74663.19;;;-147.06;46.13
21594;BME280;10959;51.328;7.322;2023-05-25T12:42:15;74673.44;;;-147.06;46.42